Time;durP1;ratioP1;P1;durP2;ratioP2;P2;SDS_P1;SDS_P2;PMS_P1;PMS_P2;Temp;Humidity;BMP_temperature;BMP_pressure;BME280_temperature;BME280_humidity;BME280_pressure;Samples;Min_cycle;Max_cycle;Signal;HPM_P1;HPM_P2
2023/06/01 00:00:18;;;;;;;11.35;4.97;;;11.20;88.90;;;;;;5027450;28;20460;-46
2023/06/01 00:02:45;;;;;;;14.38;5.28;;;11.20;89.00;;;;;;5024924;28;20029;-46
2023/06/01 00:05:12;;;;;;;15.52;4.55;;;11.20;89.10;;;;;;5027652;28;20383;-44
2023/06/01 00:07:39;;;;;;;12.25;5.70;;;11.20;89.10;;;;;;5029478;28;20050;-45
2023/06/01 00:10:07;;;;;;;17.08;5.63;;;11.20;89.10;;;;;;5032483;28;20048;-44
2023/06/01 00:12:34;;;;;;;13.32;4.93;;;11.20;89.10;;;;;;5034411;28;20040;-44
2023/06/01 00:15:03;;;;;;;12.65;4.82;;;11.20;89.20;;;;;;5030793;28;20036;-43
2023/06/01 00:17:30;;;;;;;17.20;5.45;;;11.20;89.30;;;;;;5025272;28;20021;-44
2023/06/01 00:20:00;;;;;;;13.73;5.80;;;11.20;89.50;;;;;;5020022;28;20536;-45
2023/06/01 00:22:34;;;;;;;16.40;5.88;;;11.20;89.60;;;;;;5032059;28;20037;-45
2023/06/01 00:25:01;;;;;;;11.43;5.30;;;11.10;89.60;;;;;;5033565;28;20042;-45
2023/06/01 00:27:28;;;;;;;12.02;6.03;;;11.20;89.70;;;;;;5034436;28;20048;-44
2023/06/01 00:29:54;;;;;;;19.10;7.03;;;11.10;89.60;;;;;;5031061;28;20036;-43
2023/06/01 00:32:24;;;;;;;11.98;6.80;;;11.10;89.80;;;;;;5029815;28;20352;-43
2023/06/01 00:34:50;;;;;;;14.48;5.40;;;11.10;89.70;;;;;;5029004;28;20041;-46
2023/06/01 00:37:17;;;;;;;13.32;5.82;;;11.10;89.70;;;;;;5031361;28;20034;-43
2023/06/01 00:39:43;;;;;;;12.90;6.28;;;11.10;89.50;;;;;;5028405;28;21104;-47
2023/06/01 00:42:10;;;;;;;11.88;5.38;;;11.10;89.50;;;;;;5023987;28;20037;-46
2023/06/01 00:44:37;;;;;;;12.82;6.22;;;11.20;89.60;;;;;;5022714;28;20044;-45
2023/06/01 00:47:05;;;;;;;16.30;6.50;;;11.20;89.70;;;;;;5025617;28;20036;-46
2023/06/01 00:49:32;;;;;;;11.25;5.57;;;11.20;89.60;;;;;;5027195;28;20057;-46
2023/06/01 00:51:58;;;;;;;15.32;7.13;;;11.20;89.60;;;;;;5030413;28;20037;-46
2023/06/01 00:54:25;;;;;;;15.35;7.50;;;11.20;89.50;;;;;;5027558;28;20485;-46
2023/06/01 00:56:52;;;;;;;12.93;6.22;;;11.20;89.60;;;;;;5033639;28;20347;-44
2023/06/01 00:59:19;;;;;;;12.77;7.25;;;11.20;89.50;;;;;;5028320;28;20044;-46
2023/06/01 01:01:45;;;;;;;16.52;7.50;;;11.20;89.40;;;;;;5025047;28;20029;-43
2023/06/01 01:04:17;;;;;;;13.55;6.20;;;11.20;89.30;;;;;;5028130;28;20025;-44
2023/06/01 01:07:10;;;;;;;13.32;6.15;;;11.20;89.10;;;;;;5025279;28;20097;-47
2023/06/01 01:09:56;;;;;;;13.65;6.53;;;11.20;88.90;;;;;;5031923;28;20111;-44
2023/06/01 01:12:40;;;;;;;20.48;6.72;;;11.20;88.50;;;;;;5032249;28;20031;-44
2023/06/01 01:15:29;;;;;;;17.73;6.07;;;11.10;88.30;;;;;;5029096;28;20017;-44
2023/06/01 01:18:07;;;;;;;14.70;5.43;;;11.10;87.80;;;;;;5018731;28;20422;-45
2023/06/01 01:20:43;;;;;;;13.38;5.85;;;11.20;87.90;;;;;;5032552;28;20339;-44
2023/06/01 01:23:38;;;;;;;17.88;7.10;;;11.20;88.10;;;;;;5013480;28;20026;-46
2023/06/01 01:26:22;;;;;;;16.40;7.55;;;11.20;88.40;;;;;;5031792;28;20021;-46
2023/06/01 01:29:06;;;;;;;17.52;7.10;;;11.30;88.40;;;;;;5027983;28;20124;-46
2023/06/01 01:31:34;;;;;;;17.33;7.40;;;11.30;88.50;;;;;;5022285;28;20498;-46
2023/06/01 01:34:03;;;;;;;10.02;5.43;;;11.20;88.50;;;;;;5027873;28;20022;-46
2023/06/01 01:36:32;;;;;;;20.88;6.00;;;11.30;88.50;;;;;;5029958;28;20030;-44
2023/06/01 01:38:59;;;;;;;13.20;5.57;;;11.20;88.60;;;;;;5025484;28;20026;-44
2023/06/01 01:41:26;;;;;;;15.70;6.25;;;11.20;88.50;;;;;;5030683;28;20041;-44
2023/06/01 01:43:53;;;;;;;11.82;5.00;;;11.10;88.20;;;;;;5028911;28;20037;-44
2023/06/01 01:46:27;;;;;;;12.85;5.70;;;11.10;88.20;;;;;;5022318;28;20036;-45
2023/06/01 01:49:20;;;;;;;15.18;6.35;;;11.10;88.20;;;;;;5020584;28;20434;-44
2023/06/01 01:51:56;;;;;;;13.90;6.15;;;11.10;88.10;;;;;;5029991;28;20095;-45
2023/06/01 01:54:25;;;;;;;14.00;6.72;;;11.10;88.00;;;;;;5032515;28;20029;-44
2023/06/01 01:56:57;;;;;;;12.52;5.85;;;11.10;88.10;;;;;;5032571;28;20021;-45
2023/06/01 01:59:26;;;;;;;16.83;5.38;;;11.10;88.30;;;;;;5028002;28;20057;-45
2023/06/01 02:01:53;;;;;;;17.15;8.13;;;11.20;88.10;;;;;;5032701;28;20454;-45
2023/06/01 02:04:20;;;;;;;12.63;5.93;;;11.20;88.30;;;;;;5031277;28;20123;-45
2023/06/01 02:06:47;;;;;;;11.10;5.97;;;11.20;88.40;;;;;;5030356;28;20076;-44
2023/06/01 02:09:14;;;;;;;11.90;5.10;;;11.10;88.30;;;;;;5032579;28;20064;-44
2023/06/01 02:11:41;;;;;;;12.15;6.50;;;11.20;88.30;;;;;;5023147;28;20025;-44
2023/06/01 02:14:08;;;;;;;13.45;5.82;;;11.20;88.30;;;;;;5029236;28;20026;-44
2023/06/01 02:16:35;;;;;;;10.05;5.78;;;11.20;88.20;;;;;;5030878;28;20029;-43
2023/06/01 02:19:02;;;;;;;17.27;6.28;;;11.10;88.30;;;;;;5032005;28;20116;-45
2023/06/01 02:21:31;;;;;;;14.73;6.07;;;11.10;88.30;;;;;;5031610;28;20033;-44
2023/06/01 02:24:04;;;;;;;15.10;6.82;;;11.10;88.70;;;;;;5030945;28;20033;-44
2023/06/01 02:26:33;;;;;;;15.45;6.65;;;11.20;88.90;;;;;;5018967;28;20116;-44
2023/06/01 02:29:02;;;;;;;15.18;7.90;;;11.20;89.10;;;;;;5022848;28;20045;-45
2023/06/01 02:31:29;;;;;;;21.77;6.95;;;11.20;89.30;;;;;;5027434;28;20037;-46
2023/06/01 02:33:56;;;;;;;18.42;7.47;;;11.10;89.20;;;;;;5031483;28;20635;-44
2023/06/01 02:36:24;;;;;;;15.65;6.75;;;11.20;89.20;;;;;;5016188;28;20033;-44
2023/06/01 02:38:51;;;;;;;19.25;7.15;;;11.10;89.20;;;;;;5026854;28;20022;-45
2023/06/01 02:41:21;;;;;;;18.88;7.20;;;11.10;89.30;;;;;;5024766;28;20427;-46
2023/06/01 02:43:50;;;;;;;16.63;8.60;;;11.10;89.20;;;;;;5031887;28;20030;-45
2023/06/01 02:46:18;;;;;;;17.58;8.18;;;11.10;89.30;;;;;;5016529;28;20048;-45
2023/06/01 02:48:46;;;;;;;14.93;7.95;;;11.10;89.50;;;;;;5016800;28;20072;-45
2023/06/01 02:51:12;;;;;;;16.60;7.57;;;11.10;89.70;;;;;;5033536;28;20033;-44
2023/06/01 02:53:42;;;;;;;15.90;9.50;;;11.10;89.60;;;;;;5028086;28;20026;-44
2023/06/01 02:56:10;;;;;;;13.63;6.50;;;11.10;89.50;;;;;;5018937;28;20127;-44
2023/06/01 02:58:37;;;;;;;19.48;8.43;;;11.10;89.50;;;;;;5034554;28;20032;-44
2023/06/01 03:01:04;;;;;;;20.20;7.65;;;11.00;89.60;;;;;;5022691;28;20064;-44
2023/06/01 03:03:30;;;;;;;16.35;7.05;;;11.10;89.80;;;;;;5024017;28;20026;-44
2023/06/01 03:05:57;;;;;;;12.43;6.70;;;11.10;90.00;;;;;;5029187;28;20091;-44
2023/06/01 03:08:27;;;;;;;16.95;6.65;;;11.10;90.00;;;;;;5033521;28;20064;-44
2023/06/01 03:10:53;;;;;;;14.73;6.53;;;11.10;90.20;;;;;;5032438;28;20033;-44
2023/06/01 03:13:21;;;;;;;16.70;7.32;;;11.00;90.40;;;;;;5029456;28;20018;-44
2023/06/01 03:15:48;;;;;;;11.57;6.55;;;11.00;90.60;;;;;;5017019;28;20047;-44
2023/06/01 03:18:15;;;;;;;14.52;7.60;;;11.00;90.80;;;;;;5034351;28;20025;-44
2023/06/01 03:20:42;;;;;;;13.45;6.72;;;11.00;90.90;;;;;;5035319;28;20029;-44
2023/06/01 03:23:13;;;;;;;17.23;6.57;;;11.00;90.90;;;;;;5034473;28;20041;-46
2023/06/01 03:25:40;;;;;;;10.15;5.40;;;11.00;90.90;;;;;;5028742;28;20037;-47
2023/06/01 03:28:07;;;;;;;10.75;5.85;;;10.90;90.90;;;;;;5035431;28;20470;-44
2023/06/01 03:30:33;;;;;;;12.15;6.60;;;10.90;90.90;;;;;;5034563;28;20069;-44
2023/06/01 03:33:00;;;;;;;12.65;5.88;;;10.90;91.00;;;;;;5030990;28;20041;-44
2023/06/01 03:35:26;;;;;;;17.90;7.25;;;11.00;91.10;;;;;;5018865;28;20034;-45
2023/06/01 03:37:52;;;;;;;15.65;6.38;;;11.00;91.30;;;;;;5027587;28;20160;-45
2023/06/01 03:40:19;;;;;;;10.18;5.85;;;11.00;91.60;;;;;;5029541;28;20040;-44
2023/06/01 03:42:47;;;;;;;15.48;6.00;;;10.90;91.60;;;;;;5028029;28;20029;-45
2023/06/01 03:45:17;;;;;;;12.82;5.65;;;10.90;91.60;;;;;;5025615;28;20038;-46
2023/06/01 03:47:44;;;;;;;17.27;6.80;;;10.90;91.70;;;;;;5028115;28;20018;-44
2023/06/01 03:50:11;;;;;;;13.52;6.03;;;11.00;91.80;;;;;;5028219;28;20045;-46
2023/06/01 03:52:38;;;;;;;15.23;7.82;;;11.00;91.90;;;;;;5023505;28;20048;-44
2023/06/01 03:55:09;;;;;;;15.38;5.63;;;11.00;92.10;;;;;;5031508;28;20033;-44
2023/06/01 03:57:37;;;;;;;13.20;5.95;;;11.00;92.20;;;;;;5033925;28;20026;-44
2023/06/01 04:00:17;;;;;;;7.55;5.18;;;10.90;92.20;;;;;;5034588;28;20021;-44
2023/06/01 04:02:54;;;;;;;9.82;5.93;;;10.90;92.20;;;;;;5031971;28;20025;-46
2023/06/01 04:05:22;;;;;;;10.30;6.45;;;10.90;92.30;;;;;;5030995;28;20037;-44
2023/06/01 04:07:50;;;;;;;13.00;6.05;;;10.90;92.30;;;;;;5034002;28;20099;-43
2023/06/01 04:10:17;;;;;;;11.80;6.55;;;10.90;92.40;;;;;;5024387;28;20125;-44
2023/06/01 04:12:45;;;;;;;14.10;6.25;;;10.90;92.40;;;;;;5029446;28;20041;-44
2023/06/01 04:15:17;;;;;;;13.88;7.32;;;10.90;92.50;;;;;;5026290;28;20041;-48
2023/06/01 04:17:44;;;;;;;11.95;7.15;;;10.90;92.60;;;;;;5031236;28;20045;-45
2023/06/01 04:20:13;;;;;;;17.80;7.15;;;10.90;92.40;;;;;;5034090;28;20064;-44
2023/06/01 04:22:40;;;;;;;12.75;5.68;;;10.90;92.40;;;;;;5032315;28;20471;-44
2023/06/01 04:25:09;;;;;;;13.90;6.70;;;10.90;92.50;;;;;;5029240;28;20034;-45
2023/06/01 04:27:38;;;;;;;12.77;6.35;;;10.90;92.50;;;;;;5014364;28;20120;-44
2023/06/01 04:30:12;;;;;;;10.73;5.45;;;10.90;92.60;;;;;;5027419;28;20038;-46
2023/06/01 04:32:39;;;;;;;9.88;5.43;;;10.90;92.50;;;;;;5025422;28;20033;-43
2023/06/01 04:35:08;;;;;;;14.82;5.80;;;10.90;92.50;;;;;;5031857;28;20354;-44
2023/06/01 04:37:37;;;;;;;15.32;5.78;;;10.90;92.50;;;;;;5033892;28;20398;-47
2023/06/01 04:40:07;;;;;;;24.45;6.88;;;10.90;92.50;;;;;;5032871;28;20087;-44
2023/06/01 04:42:36;;;;;;;13.98;5.00;;;10.90;92.50;;;;;;5027610;28;20489;-44
2023/06/01 04:45:04;;;;;;;11.98;5.82;;;10.90;92.50;;;;;;5033741;28;20458;-46
2023/06/01 04:47:31;;;;;;;17.25;5.70;;;10.90;92.30;;;;;;5033891;28;20366;-44
2023/06/01 04:49:59;;;;;;;15.75;6.50;;;10.90;92.00;;;;;;5025773;28;20116;-44
2023/06/01 04:52:26;;;;;;;11.95;5.20;;;10.90;91.70;;;;;;5021862;28;20034;-45
2023/06/01 04:54:53;;;;;;;9.00;5.28;;;10.90;91.50;;;;;;5033455;28;20478;-44
2023/06/01 04:57:23;;;;;;;12.05;5.60;;;10.90;91.10;;;;;;5028708;28;20455;-46
2023/06/01 04:59:51;;;;;;;11.70;5.80;;;10.90;90.80;;;;;;5025676;28;20040;-44
2023/06/01 05:02:19;;;;;;;13.55;5.93;;;11.00;90.70;;;;;;5029882;28;20406;-44
2023/06/01 05:04:49;;;;;;;8.63;5.70;;;11.00;90.50;;;;;;5033065;28;20423;-45
2023/06/01 05:07:15;;;;;;;16.38;5.97;;;11.00;90.30;;;;;;5027429;28;20057;-44
2023/06/01 05:09:45;;;;;;;13.32;5.65;;;11.00;90.20;;;;;;5032311;28;20036;-44
2023/06/01 05:12:12;;;;;;;8.90;5.00;;;11.00;90.10;;;;;;5024494;28;20527;-44
2023/06/01 05:14:39;;;;;;;11.88;4.90;;;11.10;90.00;;;;;;5031826;28;20040;-44
2023/06/01 05:17:06;;;;;;;11.40;5.50;;;11.20;89.90;;;;;;5028213;28;20032;-46
2023/06/01 05:19:33;;;;;;;11.60;6.20;;;11.10;89.30;;;;;;5023869;28;20095;-44
2023/06/01 05:21:59;;;;;;;13.55;6.05;;;11.20;89.20;;;;;;5018373;28;20030;-47
2023/06/01 05:24:26;;;;;;;13.68;6.20;;;11.20;88.70;;;;;;5012916;28;20345;-45
2023/06/01 05:26:53;;;;;;;9.95;4.68;;;11.20;87.80;;;;;;5025292;28;20048;-45
2023/06/01 05:29:21;;;;;;;8.25;4.25;;;11.20;87.20;;;;;;5030231;28;20029;-44
2023/06/01 05:31:49;;;;;;;16.48;5.28;;;11.20;86.60;;;;;;5032835;28;20034;-44
2023/06/01 05:34:16;;;;;;;10.65;4.57;;;11.20;86.40;;;;;;5032861;28;20028;-45
2023/06/01 05:36:45;;;;;;;12.40;4.72;;;11.30;86.40;;;;;;5032795;28;20430;-45
2023/06/01 05:39:12;;;;;;;15.43;4.83;;;11.30;86.60;;;;;;5024954;28;20034;-45
2023/06/01 05:41:39;;;;;;;12.00;4.15;;;11.30;86.70;;;;;;5027671;28;20044;-44
2023/06/01 05:44:06;;;;;;;10.25;4.72;;;11.30;86.70;;;;;;5026143;28;20084;-45
2023/06/01 05:46:33;;;;;;;10.35;3.65;;;11.30;86.20;;;;;;5032615;28;20060;-44
2023/06/01 05:49:00;;;;;;;13.98;5.53;;;11.40;86.00;;;;;;5032840;28;20026;-45
2023/06/01 05:51:27;;;;;;;18.58;5.20;;;11.40;85.80;;;;;;5025818;28;20040;-44
2023/06/01 05:53:54;;;;;;;10.07;4.72;;;11.40;86.10;;;;;;5031536;28;20029;-46
2023/06/01 05:56:21;;;;;;;12.65;4.78;;;11.40;86.20;;;;;;5022036;28;20065;-44
2023/06/01 05:58:52;;;;;;;10.70;4.35;;;11.40;86.30;;;;;;5030253;28;20320;-44
2023/06/01 06:01:20;;;;;;;16.92;5.75;;;11.50;86.40;;;;;;5032607;28;20025;-44
2023/06/01 06:03:46;;;;;;;14.05;6.30;;;11.50;86.60;;;;;;5027758;28;20100;-44
2023/06/01 06:06:14;;;;;;;12.80;5.30;;;11.50;87.00;;;;;;5016701;28;20045;-46
2023/06/01 06:08:42;;;;;;;13.25;5.38;;;11.50;87.00;;;;;;5021083;28;20053;-45
2023/06/01 06:11:08;;;;;;;13.43;5.03;;;11.50;87.10;;;;;;5029239;28;20046;-44
2023/06/01 06:13:35;;;;;;;12.93;5.28;;;11.50;87.20;;;;;;5024948;28;20029;-43
2023/06/01 06:16:02;;;;;;;13.10;5.38;;;11.50;87.10;;;;;;5033252;28;20037;-44
2023/06/01 06:18:33;;;;;;;10.43;4.18;;;11.50;86.80;;;;;;5037319;28;20030;-44
2023/06/01 06:21:00;;;;;;;10.23;4.32;;;11.60;86.50;;;;;;5037749;28;20087;-47
2023/06/01 06:23:30;;;;;;;10.43;3.85;;;11.60;86.10;;;;;;5038892;28;20037;-44
2023/06/01 06:25:56;;;;;;;10.80;3.85;;;11.60;85.70;;;;;;5037959;28;20021;-46
2023/06/01 06:28:23;;;;;;;13.60;3.95;;;11.70;85.70;;;;;;5038014;28;20071;-44
2023/06/01 06:30:50;;;;;;;8.45;3.78;;;11.70;85.40;;;;;;5029297;28;20034;-45
2023/06/01 06:33:16;;;;;;;7.90;3.08;;;11.70;85.40;;;;;;5034789;28;20033;-45
2023/06/01 06:35:43;;;;;;;6.53;3.17;;;11.90;85.50;;;;;;5030013;28;20393;-44
2023/06/01 06:38:12;;;;;;;8.80;3.42;;;11.90;85.50;;;;;;5028123;28;20022;-44
2023/06/01 06:40:39;;;;;;;7.80;3.38;;;11.80;85.90;;;;;;5038590;28;20029;-43
2023/06/01 06:43:06;;;;;;;13.90;3.78;;;11.80;86.30;;;;;;5038644;28;20022;-45
2023/06/01 06:45:32;;;;;;;10.25;3.95;;;11.80;87.30;;;;;;5017540;28;20443;-47
2023/06/01 06:47:59;;;;;;;10.20;4.90;;;11.80;87.70;;;;;;5034804;28;20040;-44
2023/06/01 06:50:26;;;;;;;12.73;3.50;;;11.70;87.80;;;;;;5031170;28;20025;-44
2023/06/01 06:52:53;;;;;;;12.90;3.28;;;11.60;87.80;;;;;;5030700;28;20029;-46
2023/06/01 06:55:20;;;;;;;13.93;3.67;;;11.60;87.70;;;;;;5031605;28;20033;-45
2023/06/01 06:57:47;;;;;;;6.53;2.55;;;11.60;87.20;;;;;;5024681;28;20029;-45
2023/06/01 07:00:18;;;;;;;6.13;2.35;;;11.50;86.90;;;;;;5029534;28;20039;-45
2023/06/01 07:02:46;;;;;;;12.10;3.70;;;11.50;87.00;;;;;;5023661;28;20695;-44
2023/06/01 07:05:12;;;;;;;10.98;3.42;;;11.50;87.30;;;;;;5036210;28;20098;-44
2023/06/01 07:07:40;;;;;;;12.18;3.25;;;11.50;87.20;;;;;;5031423;28;20068;-45
2023/06/01 07:10:10;;;;;;;8.45;2.75;;;11.50;87.50;;;;;;5031764;28;20624;-44
2023/06/01 07:12:37;;;;;;;10.55;2.95;;;11.50;87.20;;;;;;5033978;28;20029;-44
2023/06/01 07:15:10;;;;;;;8.85;3.90;;;11.50;87.50;;;;;;5038353;28;20053;-45
2023/06/01 07:17:37;;;;;;;11.93;2.85;;;11.50;87.40;;;;;;5035967;28;20103;-44
2023/06/01 07:20:09;;;;;;;16.02;4.25;;;11.60;87.20;;;;;;5019582;28;20022;-44
2023/06/01 07:22:36;;;;;;;13.88;3.25;;;11.70;86.90;;;;;;5032050;28;20040;-44
2023/06/01 07:25:05;;;;;;;11.55;4.18;;;11.70;86.90;;;;;;5027208;28;20610;-44
2023/06/01 07:27:36;;;;;;;15.18;3.67;;;11.70;85.60;;;;;;5032440;28;20038;-45
2023/06/01 07:30:07;;;;;;;9.30;3.70;;;11.70;85.20;;;;;;5032380;28;20029;-44
2023/06/01 07:32:33;;;;;;;12.85;3.80;;;11.70;84.90;;;;;;5025711;28;20095;-45
2023/06/01 07:34:59;;;;;;;12.02;3.25;;;11.90;85.20;;;;;;5027710;28;20437;-44
2023/06/01 07:37:26;;;;;;;11.85;2.80;;;11.90;84.60;;;;;;5030499;28;20113;-45
2023/06/01 07:39:59;;;;;;;11.07;4.25;;;11.90;82.80;;;;;;5023392;28;20029;-45
2023/06/01 07:42:25;;;;;;;11.35;3.63;;;11.90;82.60;;;;;;5033819;28;20064;-43
2023/06/01 07:44:53;;;;;;;10.70;3.65;;;11.90;83.00;;;;;;5034189;28;20045;-44
2023/06/01 07:47:21;;;;;;;11.02;3.47;;;12.00;82.70;;;;;;5023627;28;20029;-45
2023/06/01 07:49:46;;;;;;;14.00;4.70;;;12.00;82.80;;;;;;5021684;28;20033;-45
2023/06/01 07:52:13;;;;;;;12.13;4.15;;;12.00;83.10;;;;;;5028630;28;20030;-45
2023/06/01 07:54:40;;;;;;;10.63;4.30;;;12.10;83.20;;;;;;5032663;28;20032;-45
2023/06/01 07:57:07;;;;;;;11.45;3.53;;;12.10;83.70;;;;;;5036175;28;20036;-44
2023/06/01 07:59:35;;;;;;;12.40;3.70;;;12.10;82.60;;;;;;5033853;28;20022;-44
2023/06/01 08:02:01;;;;;;;11.70;3.28;;;12.00;82.00;;;;;;5033381;28;20075;-46
2023/06/01 08:04:33;;;;;;;9.90;4.22;;;12.00;82.10;;;;;;5020715;28;20475;-45
2023/06/01 08:06:58;;;;;;;11.35;3.50;;;12.10;81.70;;;;;;5022217;28;20045;-44
2023/06/01 08:09:25;;;;;;;11.85;3.08;;;12.20;81.20;;;;;;5032123;28;20033;-44
2023/06/01 08:11:53;;;;;;;13.55;3.30;;;12.30;80.40;;;;;;5028794;28;20038;-44
2023/06/01 08:14:20;;;;;;;10.35;3.30;;;12.40;79.60;;;;;;5025891;28;20164;-45
2023/06/01 08:16:47;;;;;;;11.15;2.95;;;12.30;79.70;;;;;;5033222;28;20026;-44
2023/06/01 08:19:15;;;;;;;9.60;3.05;;;12.40;79.70;;;;;;5025048;28;20048;-45
2023/06/01 08:21:43;;;;;;;11.88;3.53;;;12.40;79.80;;;;;;5028994;28;20449;-44
2023/06/01 08:24:11;;;;;;;12.15;3.58;;;12.30;80.10;;;;;;5028200;28;20045;-45
2023/06/01 08:26:39;;;;;;;11.95;3.58;;;12.40;80.40;;;;;;5034232;28;20049;-45
2023/06/01 08:29:07;;;;;;;11.43;2.83;;;12.40;80.30;;;;;;5024989;28;20037;-44
2023/06/01 08:31:34;;;;;;;12.13;4.07;;;12.50;80.20;;;;;;5031512;28;20029;-43
2023/06/01 08:34:01;;;;;;;12.95;3.45;;;12.60;79.80;;;;;;5026683;28;20021;-44
2023/06/01 08:36:26;;;;;;;9.85;2.90;;;12.60;78.70;;;;;;5032255;28;20028;-46
2023/06/01 08:38:55;;;;;;;9.23;3.00;;;12.60;78.60;;;;;;5027229;28;20425;-44
2023/06/01 08:41:36;;;;;;;6.37;3.43;;;12.50;79.00;;;;;;5021790;28;20088;-45
2023/06/01 08:44:06;;;;;;;10.23;4.35;;;12.60;79.30;;;;;;5022168;28;20355;-44
2023/06/01 08:46:38;;;;;;;11.73;4.28;;;12.50;79.60;;;;;;5014303;28;20084;-44
2023/06/01 08:49:07;;;;;;;12.07;3.97;;;12.50;80.10;;;;;;5025172;28;20037;-44
2023/06/01 08:51:37;;;;;;;12.70;3.47;;;12.50;80.30;;;;;;5020656;28;20088;-45
2023/06/01 08:54:09;;;;;;;15.05;3.88;;;12.50;80.80;;;;;;5033666;28;20078;-43
2023/06/01 08:56:41;;;;;;;11.35;3.58;;;12.60;79.40;;;;;;5027238;28;20030;-43
2023/06/01 08:59:13;;;;;;;17.75;3.65;;;12.50;79.20;;;;;;5027978;28;20026;-44
2023/06/01 09:01:39;;;;;;;8.45;3.65;;;12.50;79.40;;;;;;5023197;28;20033;-45
2023/06/01 09:04:07;;;;;;;9.95;3.22;;;12.50;79.30;;;;;;5020254;28;20132;-46
2023/06/01 09:06:36;;;;;;;9.75;3.17;;;12.60;79.00;;;;;;5023468;28;21490;-44
2023/06/01 09:09:03;;;;;;;8.55;3.85;;;12.50;78.90;;;;;;5013551;28;20641;-44
2023/06/01 09:11:32;;;;;;;8.35;3.47;;;12.50;79.50;;;;;;5028729;28;20116;-44
2023/06/01 09:13:59;;;;;;;9.02;2.80;;;12.60;79.60;;;;;;5031248;28;20029;-44
2023/06/01 09:16:38;;;;;;;10.68;3.40;;;12.70;79.20;;;;;;5029165;28;20044;-44
2023/06/01 09:19:08;;;;;;;12.73;4.50;;;12.70;79.40;;;;;;5015912;28;20029;-45
2023/06/01 09:21:38;;;;;;;11.38;3.95;;;12.80;79.80;;;;;;5018681;28;20786;-44
2023/06/01 09:24:22;;;;;;;9.30;4.10;;;12.90;79.20;;;;;;5032571;28;20359;-46
2023/06/01 09:26:49;;;;;;;10.48;3.30;;;12.90;78.70;;;;;;5028956;28;20033;-44
2023/06/01 09:29:20;;;;;;;10.23;3.60;;;12.90;78.80;;;;;;5031072;28;20041;-47
2023/06/01 09:31:47;;;;;;;10.18;3.78;;;12.90;78.30;;;;;;5022972;28;20355;-45
2023/06/01 09:34:21;;;;;;;9.55;3.40;;;12.90;78.50;;;;;;5033098;28;20025;-44
2023/06/01 09:36:55;;;;;;;9.55;3.45;;;13.00;78.20;;;;;;5031642;28;20378;-45
2023/06/01 09:39:32;;;;;;;11.13;4.10;;;13.10;78.10;;;;;;5020381;28;20076;-45
2023/06/01 09:42:01;;;;;;;10.52;3.53;;;13.20;78.20;;;;;;5026602;28;20036;-44
2023/06/01 09:44:36;;;;;;;12.50;3.65;;;13.20;78.40;;;;;;5023870;28;20032;-44
2023/06/01 09:47:10;;;;;;;15.27;4.18;;;13.20;78.20;;;;;;5041076;28;20483;-45
2023/06/01 09:49:42;;;;;;;17.67;5.03;;;13.10;78.40;;;;;;5031351;28;20043;-44
2023/06/01 09:52:14;;;;;;;10.48;3.88;;;13.10;78.70;;;;;;5032773;28;20022;-45
2023/06/01 09:54:45;;;;;;;14.07;4.68;;;13.00;79.30;;;;;;5025672;28;20022;-43
2023/06/01 09:57:20;;;;;;;9.98;3.80;;;12.90;79.20;;;;;;5030787;28;20490;-47
2023/06/01 09:59:46;;;;;;;11.52;5.22;;;12.90;79.50;;;;;;5029778;28;20453;-44
2023/06/01 10:02:16;;;;;;;15.45;5.50;;;12.90;80.20;;;;;;5026468;28;20482;-44
2023/06/01 10:04:47;;;;;;;13.73;4.80;;;12.90;79.60;;;;;;5025197;28;20131;-45
2023/06/01 10:07:16;;;;;;;16.95;5.95;;;12.80;80.00;;;;;;5024537;28;20112;-44
2023/06/01 10:09:48;;;;;;;16.40;4.72;;;12.70;80.30;;;;;;5016000;28;20022;-44
2023/06/01 10:12:15;;;;;;;13.00;4.35;;;12.70;80.40;;;;;;5023766;28;20041;-46
2023/06/01 10:14:42;;;;;;;13.40;4.28;;;12.80;79.40;;;;;;5031778;28;20045;-45
2023/06/01 10:17:11;;;;;;;11.73;3.97;;;12.80;79.90;;;;;;5027007;28;20128;-44
2023/06/01 10:19:38;;;;;;;14.88;4.80;;;12.90;78.70;;;;;;5026554;28;20436;-43
2023/06/01 10:22:05;;;;;;;9.90;3.72;;;13.00;78.70;;;;;;5025610;28;20030;-44
2023/06/01 10:24:32;;;;;;;12.55;4.38;;;13.30;78.50;;;;;;5029053;28;20026;-47
2023/06/01 10:27:35;;;;;;;13.13;4.43;;;13.30;77.40;;;;;;5022508;28;20037;-43
2023/06/01 10:30:04;;;;;;;16.25;4.65;;;13.20;78.10;;;;;;5021387;28;20041;-44
2023/06/01 10:32:49;;;;;;;15.35;4.65;;;13.10;79.10;;;;;;5029773;28;20037;-43
2023/06/01 10:35:30;;;;;;;14.95;3.95;;;12.90;79.70;;;;;;5025705;28;20483;-43
2023/06/01 10:38:20;;;;;;;21.40;4.63;;;13.00;79.10;;;;;;5032020;28;20037;-45
2023/06/01 10:40:49;;;;;;;11.35;4.15;;;13.10;79.20;;;;;;5019445;28;20116;-45
2023/06/01 10:43:48;;;;;;;19.00;4.20;;;13.20;78.50;;;;;;5032704;28;20038;-45
2023/06/01 10:46:33;;;;;;;12.75;4.28;;;13.00;79.10;;;;;;5045080;28;20675;-44
2023/06/01 10:49:03;;;;;;;14.88;4.90;;;12.90;79.90;;;;;;5043308;28;20044;-47
2023/06/01 10:51:28;;;;;;;18.88;5.43;;;12.90;80.40;;;;;;5046799;28;20220;-44
2023/06/01 10:53:54;;;;;;;12.27;4.20;;;13.00;80.80;;;;;;5045005;28;20616;-44
2023/06/01 10:56:24;;;;;;;9.27;3.88;;;13.10;80.50;;;;;;5048139;28;20478;-43
2023/06/01 10:59:08;;;;;;;12.65;3.97;;;13.10;80.70;;;;;;5048786;28;20440;-44
2023/06/01 11:01:46;;;;;;;14.60;3.13;;;13.00;79.90;;;;;;5050881;28;20043;-43
2023/06/01 11:04:13;;;;;;;8.80;2.63;;;13.10;78.50;;;;;;5056094;28;20605;-45
2023/06/01 11:06:42;;;;;;;15.32;3.28;;;13.20;77.50;;;;;;5052431;28;20872;-44
2023/06/01 11:09:10;;;;;;;8.75;2.78;;;13.50;77.10;;;;;;5051765;28;20045;-44
2023/06/01 11:11:51;;;;;;;7.47;2.28;;;13.60;75.40;;;;;;5045833;28;20120;-44
2023/06/01 11:14:29;;;;;;;12.40;3.75;;;13.70;75.00;;;;;;5053640;28;20025;-44
2023/06/01 11:17:27;;;;;;;11.73;3.95;;;13.60;74.90;;;;;;5040007;28;20029;-44
2023/06/01 11:19:58;;;;;;;11.35;2.80;;;13.70;76.00;;;;;;5051132;28;20029;-45
2023/06/01 11:22:24;;;;;;;20.15;3.63;;;13.60;76.60;;;;;;5016890;28;20034;-45
2023/06/01 11:24:54;;;;;;;10.23;3.10;;;13.40;76.90;;;;;;5025313;28;20095;-44
2023/06/01 11:27:22;;;;;;;;;;;13.30;77.50;;;;;;5022585;28;20467;-44
2023/06/01 11:29:49;;;;;;;11.98;2.85;;;13.40;77.60;;;;;;5030790;28;19909;-45
2023/06/01 11:32:23;;;;;;;13.77;3.67;;;13.40;77.30;;;;;;5027970;28;20113;-47
2023/06/01 11:34:51;;;;;;;12.40;4.32;;;13.20;78.00;;;;;;5027107;28;20513;-46
2023/06/01 11:37:19;;;;;;;11.50;3.47;;;13.20;79.30;;;;;;5028262;28;20029;-45
2023/06/01 11:39:50;;;;;;;18.42;3.50;;;13.10;79.80;;;;;;5035066;28;20029;-44
2023/06/01 11:42:35;;;;;;;10.23;3.17;;;13.00;79.60;;;;;;5034950;28;20029;-46
2023/06/01 11:45:04;;;;;;;10.05;3.45;;;13.20;79.40;;;;;;5022238;28;20022;-44
2023/06/01 11:47:32;;;;;;;17.00;3.07;;;13.30;78.20;;;;;;5033841;28;20030;-45
2023/06/01 11:49:59;;;;;;;13.90;3.60;;;13.30;78.40;;;;;;5020698;28;20532;-44
2023/06/01 11:52:26;;;;;;;7.60;2.50;;;13.40;77.60;;;;;;5033938;28;20034;-45
2023/06/01 11:54:53;;;;;;;10.50;2.95;;;13.30;77.40;;;;;;5016431;28;20034;-45
2023/06/01 11:57:20;;;;;;;6.75;1.85;;;13.20;77.90;;;;;;5025811;28;20037;-45
2023/06/01 12:00:12;;;;;;;13.32;3.15;;;13.10;78.30;;;;;;5022015;28;20122;-44
2023/06/01 12:02:38;;;;;;;11.30;2.83;;;13.20;78.70;;;;;;5031695;28;20037;-44
2023/06/01 12:05:08;;;;;;;11.82;2.70;;;13.20;79.00;;;;;;5030725;28;20029;-45
2023/06/01 12:07:48;;;;;;;9.98;3.40;;;13.20;80.00;;;;;;5030978;28;20045;-46
2023/06/01 12:10:19;;;;;;;10.73;2.35;;;13.10;79.90;;;;;;5032663;28;20030;-45
2023/06/01 12:12:47;;;;;;;9.70;3.30;;;13.20;79.80;;;;;;5032333;28;20025;-44
2023/06/01 12:15:18;;;;;;;11.15;2.97;;;13.00;80.70;;;;;;5034825;28;20029;-44
2023/06/01 12:18:03;;;;;;;8.65;3.10;;;12.90;81.30;;;;;;5033176;28;20508;-44
2023/06/01 12:20:47;;;;;;;13.00;3.05;;;12.90;81.60;;;;;;5024676;28;20403;-45
2023/06/01 12:23:32;;;;;;;7.03;2.40;;;13.00;81.20;;;;;;5016842;28;20029;-43
2023/06/01 12:25:59;;;;;;;8.02;2.75;;;13.00;80.10;;;;;;5029101;28;20363;-44
2023/06/01 12:28:31;;;;;;;9.73;2.40;;;13.00;79.00;;;;;;5025484;28;20132;-45
2023/06/01 12:31:15;;;;;;;9.73;2.42;;;12.90;79.30;;;;;;5026497;28;20057;-46
2023/06/01 12:33:45;;;;;;;8.07;2.13;;;13.00;78.90;;;;;;5030848;28;20463;-45
2023/06/01 12:36:12;;;;;;;;;;;13.20;79.60;;;;;;5029854;28;20453;-44
2023/06/01 12:39:01;;;;;;;9.93;2.05;;;13.30;77.90;;;;;;5026896;28;20004;-44
2023/06/01 12:41:28;;;;;;;6.40;2.22;;;13.40;76.20;;;;;;5028655;28;20021;-43
2023/06/01 12:43:57;;;;;;;10.48;2.75;;;13.40;75.60;;;;;;5021203;28;20033;-43
2023/06/01 12:46:27;;;;;;;6.38;2.78;;;13.50;76.00;;;;;;5034001;28;20087;-44
2023/06/01 12:49:13;;;;;;;7.93;2.38;;;13.50;76.50;;;;;;5033364;28;20041;-44
2023/06/01 12:51:39;;;;;;;9.70;1.67;;;13.50;75.70;;;;;;5031371;28;20087;-45